createdAt,value
2022-11-12T00:00:24.243Z,22.08
2022-11-12T00:03:10.187Z,28.42
2022-11-12T00:05:55.890Z,21.02
2022-11-12T00:08:41.572Z,20.58
2022-11-12T00:11:27.343Z,21.62
2022-11-12T00:14:13.014Z,24.37
2022-11-12T00:16:59.836Z,22.52
2022-11-12T00:19:45.711Z,21.50
2022-11-12T00:22:31.477Z,28.33
2022-11-12T00:25:17.413Z,24.25
2022-11-12T00:28:07.464Z,23.77
2022-11-12T00:30:53.136Z,24.37
2022-11-12T00:33:40.578Z,26.58
2022-11-12T00:36:26.445Z,24.60
2022-11-12T00:39:12.094Z,24.23
2022-11-12T00:41:57.839Z,24.17
2022-11-12T00:44:43.538Z,27.20
2022-11-12T00:47:29.515Z,22.95
2022-11-12T00:50:16.211Z,22.80
2022-11-12T00:53:01.958Z,26.37
2022-11-12T00:55:47.753Z,24.48
2022-11-12T00:58:34.942Z,24.02
2022-11-12T01:01:21.059Z,23.98
2022-11-12T01:04:07.166Z,22.65
2022-11-12T01:06:52.808Z,24.65
2022-11-12T01:09:39.761Z,26.75
2022-11-12T01:12:25.870Z,23.38
2022-11-12T01:15:11.519Z,32.13
2022-11-12T01:17:57.124Z,25.73
2022-11-12T01:20:42.766Z,25.33
2022-11-12T01:23:28.459Z,27.62
2022-11-12T01:26:16.171Z,24.83
2022-11-12T01:29:01.817Z,23.77
2022-11-12T01:31:47.590Z,27.50
2022-11-12T01:34:33.576Z,23.95
2022-11-12T01:37:19.303Z,25.27
2022-11-12T01:40:05.458Z,26.10
2022-11-12T01:42:52.540Z,27.67
2022-11-12T01:45:40.207Z,25.17
2022-11-12T01:48:34.161Z,29.67
2022-11-12T01:51:21.277Z,26.80
2022-11-12T01:54:08.612Z,28.02
2022-11-12T01:56:54.539Z,29.65
2022-11-12T01:59:44.542Z,22.13
2022-11-12T02:02:31.628Z,29.17
2022-11-12T02:05:17.442Z,25.85
2022-11-12T02:08:03.569Z,26.62
2022-11-12T02:10:50.232Z,25.95
2022-11-12T02:13:54.588Z,26.17
2022-11-12T02:16:41.481Z,24.67
2022-11-12T02:19:27.423Z,28.23
2022-11-12T02:22:13.145Z,22.37
2022-11-12T02:24:58.815Z,27.33
2022-11-12T02:27:44.677Z,23.40
2022-11-12T02:30:35.560Z,27.92
2022-11-12T02:33:21.501Z,27.67
2022-11-12T02:36:07.330Z,25.00
2022-11-12T02:38:53.079Z,26.35
2022-11-12T02:41:38.586Z,26.60
2022-11-12T02:44:24.260Z,25.20
2022-11-12T02:47:09.940Z,26.98
2022-11-12T02:49:55.597Z,32.15
2022-11-12T02:52:41.311Z,29.63
2022-11-12T02:55:27.035Z,27.10
2022-11-12T02:58:12.756Z,30.77
2022-11-12T03:00:58.473Z,29.73
2022-11-12T03:03:43.992Z,31.40
2022-11-12T03:06:29.642Z,26.58
2022-11-12T03:09:15.275Z,25.58
2022-11-12T03:12:01.136Z,30.05
2022-11-12T03:14:46.955Z,27.08
2022-11-12T03:17:34.655Z,27.13
2022-11-12T03:20:20.584Z,22.37
2022-11-12T03:23:08.157Z,24.60
2022-11-12T03:25:53.765Z,29.02
2022-11-12T03:28:39.348Z,26.90
2022-11-12T03:31:25.072Z,26.08
2022-11-12T03:34:11.168Z,24.77
2022-11-12T03:39:42.817Z,27.05
2022-11-12T03:42:28.578Z,31.55
2022-11-12T03:45:14.847Z,31.90
2022-11-12T03:50:46.459Z,30.75
2022-11-12T03:53:32.168Z,34.42
2022-11-12T03:56:17.952Z,37.92
2022-11-12T03:59:03.633Z,29.98
2022-11-12T04:01:49.300Z,21.50
2022-11-12T04:04:54.126Z,28.42
2022-11-12T04:07:59.116Z,35.03
2022-11-12T04:10:45.036Z,27.58
2022-11-12T04:13:30.786Z,26.37
2022-11-12T04:16:37.412Z,27.33
2022-11-12T04:19:42.245Z,25.42
2022-11-12T04:22:28.187Z,29.73
2022-11-12T04:25:32.829Z,27.80
2022-11-12T04:28:18.915Z,27.97
2022-11-12T04:31:04.520Z,28.27
2022-11-12T04:33:50.187Z,26.73
2022-11-12T04:36:35.943Z,45.55
2022-11-12T04:39:21.509Z,26.20
2022-11-12T04:42:27.623Z,32.10
2022-11-12T04:45:13.585Z,37.58
2022-11-12T04:47:59.339Z,32.97
2022-11-12T04:50:45.785Z,34.03
2022-11-12T04:53:31.760Z,35.40
2022-11-12T04:56:17.357Z,32.22
2022-11-12T04:59:03.084Z,34.97
2022-11-12T05:01:48.683Z,39.58
2022-11-12T05:04:34.262Z,36.22
2022-11-12T05:07:20.290Z,37.85
2022-11-12T05:10:06.647Z,40.03
2022-11-12T05:15:38.167Z,31.20
2022-11-12T05:18:24.042Z,29.83
2022-11-12T05:21:28.779Z,32.40
2022-11-12T05:24:34.004Z,27.98
2022-11-12T05:27:20.969Z,32.05
2022-11-12T05:31:20.355Z,27.40
2022-11-12T05:34:06.516Z,28.17
2022-11-12T05:36:52.404Z,28.87
2022-11-12T05:39:37.943Z,31.15
2022-11-12T05:42:23.780Z,28.90
2022-11-12T05:45:09.589Z,25.02
2022-11-12T05:47:55.268Z,28.92
2022-11-12T05:50:58.581Z,30.60
2022-11-12T05:53:46.739Z,31.00
2022-11-12T05:56:32.473Z,24.27
2022-11-12T05:59:18.266Z,24.42
2022-11-12T06:02:03.928Z,25.90
2022-11-12T06:07:36.051Z,25.98
2022-11-12T06:10:21.576Z,27.37
2022-11-12T06:13:07.388Z,26.58
2022-11-12T06:15:53.502Z,28.75
2022-11-12T06:21:27.559Z,26.20
2022-11-12T06:24:13.227Z,24.50
2022-11-12T06:26:59.103Z,27.98
2022-11-12T06:29:44.800Z,24.27
2022-11-12T06:32:30.475Z,25.83
2022-11-12T06:35:16.605Z,25.77
2022-11-12T06:40:48.220Z,25.80
2022-11-12T06:43:34.224Z,26.75
2022-11-12T06:46:20.155Z,31.60
2022-11-12T06:49:06.226Z,30.98
2022-11-12T06:51:52.028Z,30.35
2022-11-12T06:54:37.615Z,34.03
2022-11-12T06:57:23.348Z,34.22
2022-11-12T07:00:11.716Z,33.58
2022-11-12T07:02:57.534Z,32.42
2022-11-12T07:05:43.875Z,28.95
2022-11-12T07:08:29.812Z,30.15
2022-11-12T07:11:16.326Z,30.88
2022-11-12T07:14:02.206Z,29.15
2022-11-12T07:16:47.826Z,31.95
2022-11-12T07:19:33.626Z,30.15
2022-11-12T07:22:19.275Z,26.77
2022-11-12T07:25:05.423Z,32.58
2022-11-12T07:27:52.689Z,30.37
2022-11-12T07:30:38.296Z,28.85
2022-11-12T07:33:24.232Z,30.67
2022-11-12T07:36:11.987Z,29.10
2022-11-12T07:38:58.060Z,31.23
2022-11-12T07:41:43.850Z,29.40
2022-11-12T07:44:29.510Z,31.48
2022-11-12T07:47:15.164Z,26.95
2022-11-12T07:50:00.941Z,30.02
2022-11-12T07:52:46.485Z,29.15
2022-11-12T07:55:32.144Z,31.15
2022-11-12T07:58:17.933Z,34.30
2022-11-12T08:01:28.376Z,30.15
2022-11-12T08:04:14.117Z,28.75
2022-11-12T08:06:59.894Z,33.72
2022-11-12T08:09:46.060Z,33.85
2022-11-12T08:12:31.573Z,30.77
2022-11-12T08:15:17.340Z,36.88
2022-11-12T08:18:03.086Z,32.10
2022-11-12T08:20:48.617Z,32.58
2022-11-12T08:23:34.480Z,40.47
2022-11-12T08:26:20.256Z,37.45
2022-11-12T08:29:08.500Z,34.03
2022-11-12T08:31:54.933Z,28.90
2022-11-12T08:34:41.446Z,30.70
2022-11-12T08:37:27.273Z,36.20
2022-11-12T08:40:13.144Z,37.03
2022-11-12T08:43:06.137Z,30.58
2022-11-12T08:45:52.023Z,34.28
2022-11-12T08:48:39.925Z,46.10
2022-11-12T08:51:25.756Z,43.13
2022-11-12T08:54:11.343Z,33.80
2022-11-12T08:56:57.031Z,37.20
2022-11-12T08:59:42.801Z,35.65
2022-11-12T09:02:28.441Z,29.48
2022-11-12T09:05:14.180Z,33.53
2022-11-12T09:08:10.493Z,32.92
2022-11-12T09:10:57.784Z,32.95
2022-11-12T09:13:43.600Z,35.72
2022-11-12T09:16:29.254Z,34.55
2022-11-12T09:19:15.086Z,39.20
2022-11-12T09:22:00.711Z,35.95
2022-11-12T09:24:46.348Z,28.38
2022-11-12T09:27:31.973Z,35.00
2022-11-12T09:30:17.739Z,34.70
2022-11-12T09:33:03.471Z,37.78
2022-11-12T09:35:49.255Z,36.33
2022-11-12T09:38:35.100Z,36.58
2022-11-12T09:41:24.215Z,30.90
2022-11-12T09:44:17.488Z,34.85
2022-11-12T09:47:12.543Z,35.13
2022-11-12T09:50:01.401Z,36.13
2022-11-12T09:52:48.363Z,33.58
2022-11-12T09:55:46.008Z,36.67
2022-11-12T09:58:31.973Z,37.05
2022-11-12T10:01:39.142Z,35.33
2022-11-12T10:04:46.990Z,35.03
2022-11-12T10:07:40.550Z,33.70
2022-11-12T10:10:42.169Z,35.03
2022-11-12T10:13:59.073Z,36.08
2022-11-12T10:17:08.740Z,34.47
2022-11-12T10:20:50.273Z,41.15
2022-11-12T10:23:46.203Z,33.30
2022-11-12T10:26:31.965Z,37.55
2022-11-12T10:29:40.053Z,36.10
2022-11-12T10:32:25.846Z,36.80
2022-11-12T10:35:13.244Z,36.20
2022-11-12T10:38:04.357Z,42.60
2022-11-12T10:40:50.089Z,34.72
2022-11-12T10:43:36.152Z,35.88
2022-11-12T10:46:23.660Z,33.75
2022-11-12T10:49:15.942Z,32.55
2022-11-12T10:52:01.858Z,36.28
2022-11-12T10:54:52.351Z,37.55
2022-11-12T10:57:40.720Z,37.15
2022-11-12T11:00:26.653Z,38.78
2022-11-12T11:03:17.014Z,32.55
2022-11-12T11:06:07.772Z,51.33
2022-11-12T11:08:54.799Z,31.65
2022-11-12T11:11:54.051Z,36.78
2022-11-12T11:14:40.687Z,33.47
2022-11-12T11:17:26.523Z,32.88
2022-11-12T11:20:28.907Z,31.70
2022-11-12T11:23:46.031Z,35.25
2022-11-12T11:26:49.088Z,36.75
2022-11-12T11:29:37.992Z,32.80
2022-11-12T11:32:51.595Z,32.03
2022-11-12T11:35:43.311Z,32.17
2022-11-12T11:38:35.948Z,38.20
2022-11-12T11:41:30.442Z,34.40
2022-11-12T11:44:22.194Z,34.95
2022-11-12T11:47:13.248Z,35.90
2022-11-12T11:50:27.637Z,30.75
2022-11-12T11:53:20.886Z,32.30
2022-11-12T11:56:13.126Z,32.10
2022-11-12T11:59:14.121Z,30.67
2022-11-12T12:02:05.428Z,32.35
2022-11-12T12:05:01.003Z,32.60
2022-11-12T12:11:07.373Z,30.58
2022-11-12T12:14:06.172Z,26.23
2022-11-12T12:17:19.237Z,29.48
2022-11-12T12:20:35.042Z,26.17
2022-11-12T12:23:33.792Z,32.78
2022-11-12T12:26:27.797Z,31.50
2022-11-12T12:29:25.809Z,26.58
2022-11-12T12:32:17.468Z,28.80
2022-11-12T12:35:33.135Z,34.65
2022-11-12T12:38:27.418Z,30.33
2022-11-12T12:41:34.951Z,36.58
2022-11-12T12:44:20.600Z,35.65
2022-11-12T12:47:06.395Z,36.42
2022-11-12T12:49:52.107Z,36.53
2022-11-12T12:53:15.133Z,34.25
2022-11-12T12:56:05.787Z,30.73
2022-11-12T12:58:51.798Z,29.65
2022-11-12T13:01:38.014Z,31.17
2022-11-12T13:04:57.884Z,31.62
2022-11-12T13:07:45.255Z,30.85
2022-11-12T13:10:37.129Z,33.20
2022-11-12T13:13:32.137Z,37.17
2022-11-12T13:16:51.087Z,33.30
2022-11-12T13:19:58.197Z,34.08
2022-11-12T13:22:43.880Z,31.10
2022-11-12T13:25:31.041Z,36.20
2022-11-12T13:28:17.112Z,34.58
2022-11-12T13:31:03.417Z,36.47
2022-11-12T13:33:49.049Z,34.15
2022-11-12T13:39:20.537Z,40.67
2022-11-12T13:42:32.167Z,34.33
2022-11-12T13:45:22.227Z,36.88
2022-11-12T13:48:08.960Z,34.97
2022-11-12T13:50:57.295Z,31.77
2022-11-12T13:53:43.253Z,31.08
2022-11-12T13:56:33.607Z,30.67
2022-11-12T13:59:24.147Z,30.75
2022-11-12T14:02:26.476Z,31.30
2022-11-12T14:05:16.982Z,31.05
2022-11-12T14:08:14.982Z,35.13
2022-11-12T14:11:07.767Z,33.05
2022-11-12T14:14:01.833Z,27.42
2022-11-12T14:17:22.125Z,31.25
2022-11-12T14:20:07.956Z,35.92
2022-11-12T14:22:54.474Z,35.95
2022-11-12T14:25:50.802Z,27.20
2022-11-12T14:28:36.894Z,27.27
2022-11-12T14:31:24.624Z,26.60
2022-11-12T14:34:26.981Z,27.15
2022-11-12T14:37:31.009Z,26.65
2022-11-12T14:40:20.258Z,27.25
2022-11-12T14:43:06.180Z,21.75
2022-11-12T14:45:52.784Z,28.92
2022-11-12T14:48:48.287Z,24.40
2022-11-12T14:51:38.768Z,25.20
2022-11-12T14:54:28.951Z,23.35
2022-11-12T14:57:19.057Z,27.80
2022-11-12T15:00:32.902Z,29.95
2022-11-12T15:03:21.015Z,25.55
2022-11-12T15:06:06.544Z,31.95
2022-11-12T15:08:58.877Z,33.75
2022-11-12T15:11:47.737Z,36.80
2022-11-12T15:14:33.657Z,30.67
2022-11-12T15:17:27.191Z,32.55
2022-11-12T15:20:14.424Z,33.08
2022-11-12T15:23:00.179Z,32.78
2022-11-12T15:25:46.281Z,29.83
2022-11-12T15:28:32.190Z,32.28
2022-11-12T15:31:20.194Z,32.88
2022-11-12T15:34:28.884Z,34.10
2022-11-12T15:37:17.249Z,33.78
2022-11-12T15:40:07.070Z,30.90
2022-11-12T15:42:52.798Z,32.83
2022-11-12T15:45:38.720Z,34.80
2022-11-12T15:51:10.884Z,44.78
2022-11-12T15:56:43.086Z,35.22
2022-11-12T15:59:28.831Z,40.08
2022-11-12T16:02:15.673Z,32.55
2022-11-12T16:05:01.491Z,41.25
2022-11-12T16:07:47.630Z,37.78
2022-11-12T16:16:15.566Z,39.05
2022-11-12T16:21:46.898Z,34.40
2022-11-12T16:24:32.615Z,38.28
2022-11-12T16:27:20.454Z,34.22
2022-11-12T16:30:12.857Z,39.40
2022-11-12T16:32:58.846Z,69.53
2022-11-12T16:35:44.687Z,44.33
2022-11-12T16:38:30.273Z,73.93
2022-11-12T16:41:16.341Z,70.10
2022-11-12T16:44:02.101Z,56.67
2022-11-12T16:46:47.805Z,61.37
2022-11-12T16:49:38.408Z,69.45
2022-11-12T16:52:25.892Z,66.15
2022-11-12T16:55:11.596Z,55.10
2022-11-12T16:57:57.249Z,55.25
2022-11-12T17:00:44.512Z,56.40
2022-11-12T17:03:30.449Z,59.67
2022-11-12T17:09:03.882Z,58.00
2022-11-12T17:11:49.565Z,53.72
2022-11-12T17:14:35.694Z,55.92
2022-11-12T17:20:07.456Z,49.97
2022-11-12T17:25:38.728Z,54.25
2022-11-12T17:28:24.525Z,45.17
2022-11-12T17:31:15.791Z,50.97
2022-11-12T17:34:04.440Z,48.80
2022-11-12T17:36:50.204Z,58.80
2022-11-12T17:39:35.894Z,51.28
2022-11-12T17:42:21.704Z,43.47
2022-11-12T17:45:07.767Z,57.55
2022-11-12T17:47:53.862Z,54.55
2022-11-12T17:50:39.611Z,48.45
2022-11-12T17:53:25.606Z,57.90
2022-11-12T17:58:58.049Z,51.30
2022-11-12T18:01:43.922Z,48.60
2022-11-12T18:04:31.147Z,45.78
2022-11-12T18:07:16.948Z,47.97
2022-11-12T18:10:02.615Z,47.70
2022-11-12T18:12:48.383Z,53.78
2022-11-12T18:15:34.141Z,53.47
2022-11-12T18:18:19.977Z,57.05
2022-11-12T18:21:05.645Z,51.10
2022-11-12T18:23:51.396Z,46.20
2022-11-12T18:26:37.054Z,51.08
2022-11-12T18:29:22.799Z,47.62
2022-11-12T18:32:08.551Z,43.33
2022-11-12T18:34:54.360Z,46.30
2022-11-12T18:37:40.218Z,48.63
2022-11-12T18:40:26.029Z,46.92
2022-11-12T18:43:11.659Z,47.35
2022-11-12T18:46:00.424Z,74.97
2022-11-12T18:48:47.343Z,62.75
2022-11-12T18:51:33.029Z,63.05
2022-11-12T18:54:18.743Z,63.72
2022-11-12T18:57:04.397Z,78.45
2022-11-12T18:59:52.647Z,63.50
2022-11-12T19:02:38.780Z,73.40
2022-11-12T19:05:24.543Z,65.53
2022-11-12T19:08:10.396Z,56.70
2022-11-12T19:11:21.741Z,66.53
2022-11-12T19:14:07.767Z,58.20
2022-11-12T19:19:39.565Z,66.97
2022-11-12T19:22:25.305Z,68.65
2022-11-12T19:25:10.902Z,61.80
2022-11-12T19:27:56.440Z,78.47
2022-11-12T19:30:42.177Z,68.72
2022-11-12T19:33:27.808Z,72.95
2022-11-12T19:36:21.933Z,72.30
2022-11-12T19:39:07.980Z,61.45
2022-11-12T19:41:53.557Z,68.25
2022-11-12T19:44:39.112Z,69.97
2022-11-12T19:47:24.592Z,70.35
2022-11-12T19:50:10.315Z,70.78
2022-11-12T19:52:56.561Z,63.63
2022-11-12T19:58:28.517Z,66.72
2022-11-12T20:01:16.297Z,62.55
2022-11-12T20:04:02.297Z,67.93
2022-11-12T20:06:47.868Z,72.82
2022-11-12T20:12:19.880Z,63.70
2022-11-12T20:15:06.355Z,69.85
2022-11-12T20:17:52.431Z,75.05
2022-11-12T20:20:38.043Z,70.60
2022-11-12T20:23:24.114Z,66.82
2022-11-12T20:26:11.253Z,77.78
2022-11-12T20:28:56.921Z,73.85
2022-11-12T20:31:42.637Z,78.10
2022-11-12T20:34:28.307Z,87.53
2022-11-12T20:37:14.076Z,80.38
2022-11-12T20:40:00.139Z,77.07
2022-11-12T20:42:50.640Z,72.85
2022-11-12T20:45:36.511Z,75.70
2022-11-12T20:48:22.488Z,68.72
2022-11-12T20:51:23.679Z,72.03
2022-11-12T20:54:10.621Z,75.00
2022-11-12T20:56:56.311Z,75.50
2022-11-12T20:59:41.987Z,70.75
2022-11-12T21:02:27.634Z,63.53
2022-11-12T21:05:13.476Z,74.95
2022-11-12T21:07:59.082Z,68.78
2022-11-12T21:10:48.909Z,64.90
2022-11-12T21:13:35.511Z,64.82
2022-11-12T21:16:21.408Z,61.80
2022-11-12T21:19:07.108Z,68.20
2022-11-12T21:21:53.337Z,63.95
2022-11-12T21:24:39.106Z,69.93
2022-11-12T21:27:25.175Z,68.40
2022-11-12T21:30:11.224Z,65.70
2022-11-12T21:32:57.065Z,61.30
2022-11-12T21:35:43.077Z,63.55
2022-11-12T21:38:29.564Z,64.82
2022-11-12T21:41:17.565Z,68.43
2022-11-12T21:44:03.558Z,58.87
2022-11-12T21:46:49.417Z,64.32
2022-11-12T21:49:35.386Z,66.30
2022-11-12T21:52:21.113Z,62.47
2022-11-12T21:55:07.484Z,64.10
2022-11-12T22:00:41.888Z,68.57
2022-11-12T22:03:31.216Z,57.42
2022-11-12T22:06:17.254Z,58.97
2022-11-12T22:09:03.262Z,71.30
2022-11-12T22:11:48.905Z,61.50
2022-11-12T22:14:34.705Z,61.92
2022-11-12T22:17:20.623Z,61.70
2022-11-12T22:20:06.868Z,62.95
2022-11-12T22:22:52.594Z,59.72
2022-11-12T22:25:38.302Z,62.28
2022-11-12T22:28:24.266Z,59.72
2022-11-12T22:31:14.975Z,53.72
2022-11-12T22:34:01.545Z,56.55
2022-11-12T22:36:47.456Z,59.35
2022-11-12T22:39:33.311Z,58.25
2022-11-12T22:42:18.979Z,64.57
2022-11-12T22:45:04.926Z,62.33
2022-11-12T22:50:36.689Z,56.63
2022-11-12T22:53:22.429Z,56.28
2022-11-12T22:56:10.269Z,58.08
2022-11-12T22:58:56.269Z,53.20
2022-11-12T23:04:28.241Z,53.78
2022-11-12T23:07:14.011Z,52.72
2022-11-12T23:09:59.739Z,51.37
2022-11-12T23:12:45.343Z,48.63
2022-11-12T23:15:31.405Z,56.03
2022-11-12T23:18:17.318Z,57.47
2022-11-12T23:21:07.857Z,53.35
2022-11-12T23:23:53.695Z,56.50
2022-11-12T23:26:39.554Z,54.72
2022-11-12T23:29:25.156Z,51.55
2022-11-12T23:32:10.839Z,55.40
2022-11-12T23:34:56.485Z,52.42
2022-11-12T23:37:42.300Z,56.90
2022-11-12T23:40:31.072Z,55.50
2022-11-12T23:43:17.479Z,53.45
2022-11-12T23:46:03.248Z,52.03
2022-11-12T23:48:49.443Z,51.20
2022-11-12T23:51:35.369Z,51.08
2022-11-12T23:54:21.011Z,49.20
2022-11-12T23:57:06.838Z,52.00
2022-11-12T23:59:52.528Z,49.50
